Terminal Aerodrome Forecast
Issued by NWS

Home | Current Version | Previous Version | Text Only | Print | Product List | Glossary On
Versions: 1 2 3 4 5 6 7 8 9 10 11 12 13 14 15 16 17 18 19 20 21
000
FTUS43 KDTX 291400 AAA
TAFDET
TAF AMD
KDET 291408Z 2914/3012 27006KT P6SM SCT080
     FM291600 27012KT P6SM SCT035 OVC060
      TEMPO 2920/2923 4SM -SHRA OVC035
     FM300000 30007KT P6SM SCT080 BKN200
     FM300700 24005KT P6SM -SHRA OVC060=

USA.gov is the U.S. government's official web portal to all federal, state and local government web resources and services.